Time;durP1;ratioP1;P1;durP2;ratioP2;P2;SDS_P1;SDS_P2;PMS_P1;PMS_P2;Temp;Humidity;BMP_temperature;BMP_pressure;BME280_temperature;BME280_humidity;BME280_pressure;Samples;Min_cycle;Max_cycle;Signal;HPM_P1;HPM_P2
2022/10/15 00:01:18;;;;;;;0.70;0.28;;;16.50;99.90;;;;;;5090967;28;20480;-82
2022/10/15 00:03:45;;;;;;;1.50;0.30;;;16.50;99.90;;;;;;5085369;28;20508;-82
2022/10/15 00:06:15;;;;;;;1.00;0.20;;;16.40;99.90;;;;;;5079667;28;20052;-83
2022/10/15 00:08:42;;;;;;;1.17;0.22;;;16.50;99.90;;;;;;5075756;28;20556;-82
2022/10/15 00:11:16;;;;;;;0.10;0.10;;;16.50;99.90;;;;;;5070455;28;20509;-82
2022/10/15 00:13:43;;;;;;;0.80;0.20;;;16.50;99.90;;;;;;5081702;28;20484;-83
2022/10/15 00:16:16;;;;;;;0.77;0.25;;;16.50;99.90;;;;;;5067596;28;20138;-83
2022/10/15 00:18:43;;;;;;;1.15;0.20;;;16.50;99.90;;;;;;5091584;28;20055;-82
2022/10/15 00:21:13;;;;;;;0.20;0.20;;;16.50;99.90;;;;;;5084703;28;20051;-83
2022/10/15 00:23:40;;;;;;;0.40;0.30;;;16.50;99.90;;;;;;5062565;28;20128;-83
2022/10/15 00:26:16;;;;;;;0.63;0.20;;;16.50;99.90;;;;;;5096197;28;20597;-83
2022/10/15 00:28:43;;;;;;;0.10;0.10;;;16.50;99.90;;;;;;5089593;28;20047;-83
2022/10/15 00:31:13;;;;;;;0.43;0.30;;;16.50;99.90;;;;;;5079635;28;20437;-82
2022/10/15 00:33:40;;;;;;;0.40;0.40;;;16.40;99.90;;;;;;5080368;28;20054;-82
2022/10/15 00:36:15;;;;;;;1.77;0.38;;;16.50;99.90;;;;;;5090498;28;20040;-81
2022/10/15 00:38:42;;;;;;;3.47;0.43;;;16.50;99.90;;;;;;5067246;28;20049;-82
2022/10/15 00:41:24;;;;;;;0.40;0.40;;;16.50;99.90;;;;;;5061910;28;20048;-82
2022/10/15 00:43:54;;;;;;;2.63;0.32;;;16.50;99.90;;;;;;5089873;28;20044;-82
2022/10/15 00:46:40;;;;;;;0.70;0.20;;;16.50;99.90;;;;;;5087702;28;20501;-82
2022/10/15 00:49:07;;;;;;;0.30;0.30;;;16.40;99.90;;;;;;5081170;28;20079;-82
2022/10/15 00:51:41;;;;;;;2.25;0.40;;;16.40;99.90;;;;;;5084016;28;20052;-81
2022/10/15 00:54:08;;;;;;;0.55;0.30;;;16.40;99.90;;;;;;5085505;28;20041;-81
2022/10/15 00:56:37;;;;;;;4.00;0.30;;;16.40;99.90;;;;;;5083614;28;20070;-82
2022/10/15 00:59:05;;;;;;;0.82;0.32;;;16.40;99.90;;;;;;5075890;28;20395;-82
2022/10/15 01:01:32;;;;;;;1.75;0.40;;;16.40;99.90;;;;;;5090520;28;20420;-82
2022/10/15 01:04:01;;;;;;;0.55;0.20;;;16.50;99.90;;;;;;5087545;28;20054;-83
2022/10/15 01:06:28;;;;;;;0.73;0.28;;;16.50;99.90;;;;;;5063393;28;20112;-82
2022/10/15 01:08:55;;;;;;;2.15;0.28;;;16.50;99.90;;;;;;5082522;28;20056;-81
2022/10/15 01:11:21;;;;;;;2.30;0.68;;;16.50;99.90;;;;;;5088615;28;20135;-82
2022/10/15 01:14:13;;;;;;;2.35;0.57;;;16.50;99.90;;;;;;5083489;28;20053;-82
2022/10/15 01:16:56;;;;;;;0.47;0.22;;;16.50;99.90;;;;;;5078370;28;20052;-80
2022/10/15 01:20:00;;;;;;;1.23;0.50;;;16.50;99.90;;;;;;5074241;28;20044;-81
2022/10/15 01:22:33;;;;;;;3.63;0.50;;;16.60;99.90;;;;;;5084163;28;20048;-81
2022/10/15 01:25:29;;;;;;;1.65;0.32;;;16.60;99.90;;;;;;5061902;28;20052;-84
2022/10/15 01:28:12;;;;;;;0.20;0.20;;;16.60;99.90;;;;;;5084210;28;20052;-82
2022/10/15 01:30:48;;;;;;;1.15;0.50;;;16.60;99.90;;;;;;5084624;28;20168;-82
2022/10/15 01:33:21;;;;;;;0.40;0.30;;;16.60;99.90;;;;;;5086006;28;20048;-81
2022/10/15 01:35:53;;;;;;;1.05;0.38;;;16.60;99.90;;;;;;5073216;28;20044;-83
2022/10/15 01:38:23;;;;;;;0.25;0.20;;;16.60;99.90;;;;;;5091284;28;20108;-82
2022/10/15 01:41:03;;;;;;;2.58;0.40;;;16.60;99.90;;;;;;5086800;28;20433;-83
2022/10/15 01:43:42;;;;;;;;;;;16.60;99.90;;;;;;5080626;28;20052;-81
2022/10/15 01:46:22;;;;;;;0.57;0.20;;;16.60;99.90;;;;;;5078966;28;20007;-82
2022/10/15 01:48:53;;;;;;;0.28;0.28;;;16.60;99.90;;;;;;5074627;28;20048;-82
2022/10/15 01:51:22;;;;;;;2.13;0.20;;;16.70;99.90;;;;;;5089451;28;20066;-81
2022/10/15 01:53:50;;;;;;;0.27;0.27;;;16.60;99.90;;;;;;5097703;28;20052;-82
2022/10/15 01:56:20;;;;;;;2.28;0.25;;;16.60;99.90;;;;;;5094220;28;20150;-82
2022/10/15 01:58:50;;;;;;;2.67;0.30;;;16.60;99.90;;;;;;5084181;28;20048;-84
2022/10/15 02:01:17;;;;;;;;;;;16.60;99.90;;;;;;5079780;28;20048;-83
2022/10/15 02:03:45;;;;;;;1.38;0.40;;;16.70;99.90;;;;;;5080225;28;19923;-83
2022/10/15 02:06:24;;;;;;;1.13;0.20;;;16.60;99.90;;;;;;5092003;28;20506;-84
2022/10/15 02:08:58;;;;;;;0.88;0.30;;;16.60;99.90;;;;;;5086082;28;20052;-83
2022/10/15 02:11:25;;;;;;;2.15;0.30;;;16.70;99.90;;;;;;5086369;28;20090;-83
2022/10/15 02:14:02;;;;;;;0.75;0.40;;;16.70;99.90;;;;;;5091834;28;20048;-82
2022/10/15 02:16:51;;;;;;;2.90;0.30;;;16.60;99.90;;;;;;5084958;28;20058;-83
2022/10/15 02:19:28;;;;;;;0.98;0.40;;;16.60;99.90;;;;;;5081621;28;20044;-83
2022/10/15 02:22:00;;;;;;;0.30;0.30;;;16.60;99.90;;;;;;5089853;28;20399;-83
2022/10/15 02:24:34;;;;;;;0.55;0.20;;;16.60;99.90;;;;;;5073816;28;20052;-83
2022/10/15 02:27:02;;;;;;;3.00;0.50;;;16.60;99.90;;;;;;5080669;28;20112;-83
2022/10/15 02:29:33;;;;;;;1.27;0.30;;;16.60;99.90;;;;;;5093161;28;20485;-83
2022/10/15 02:32:03;;;;;;;0.75;0.40;;;16.50;99.90;;;;;;5091204;28;20138;-83
2022/10/15 02:34:32;;;;;;;0.40;0.30;;;16.50;99.90;;;;;;5082347;28;20048;-83
2022/10/15 02:37:02;;;;;;;1.20;0.40;;;16.50;99.90;;;;;;5085937;28;20055;-83
2022/10/15 02:39:29;;;;;;;1.05;0.43;;;16.50;99.90;;;;;;5103939;28;20040;-81
2022/10/15 02:41:56;;;;;;;2.47;0.30;;;16.50;99.90;;;;;;5097332;28;20066;-82
2022/10/15 02:44:23;;;;;;;2.08;0.30;;;16.50;99.90;;;;;;5079379;28;20045;-82
2022/10/15 02:46:49;;;;;;;0.68;0.20;;;16.50;99.90;;;;;;5089648;28;20420;-81
2022/10/15 02:49:16;;;;;;;1.73;0.65;;;16.40;99.90;;;;;;5089481;28;20044;-82
2022/10/15 02:51:43;;;;;;;1.23;0.40;;;16.40;99.90;;;;;;5084136;28;20044;-82
2022/10/15 02:54:10;;;;;;;3.50;0.50;;;16.40;99.90;;;;;;5078418;28;20135;-82
2022/10/15 02:56:38;;;;;;;1.98;0.40;;;16.50;99.90;;;;;;5091928;28;20524;-81
2022/10/15 02:59:06;;;;;;;2.67;0.43;;;16.40;99.90;;;;;;5083207;28;20482;-83
2022/10/15 03:01:33;;;;;;;0.38;0.35;;;16.40;99.90;;;;;;5081881;28;20044;-82
2022/10/15 03:04:01;;;;;;;4.22;0.60;;;16.40;99.90;;;;;;5081380;28;20449;-82
2022/10/15 03:06:27;;;;;;;2.92;0.50;;;16.40;99.90;;;;;;5072161;28;20052;-82
2022/10/15 03:08:54;;;;;;;0.52;0.30;;;16.40;99.90;;;;;;5085270;28;20045;-82
2022/10/15 03:11:21;;;;;;;0.93;0.38;;;16.40;99.90;;;;;;5078979;28;20055;-80
2022/10/15 03:13:47;;;;;;;1.63;0.40;;;16.40;99.90;;;;;;5090405;28;20723;-81
2022/10/15 03:16:14;;;;;;;0.65;0.60;;;16.40;99.90;;;;;;5087862;28;20048;-81
2022/10/15 03:18:41;;;;;;;0.30;0.20;;;16.40;99.90;;;;;;5081978;28;20056;-82
2022/10/15 03:21:07;;;;;;;1.23;0.52;;;16.40;99.90;;;;;;5081789;28;20584;-80
2022/10/15 03:23:34;;;;;;;0.88;0.30;;;16.40;99.90;;;;;;5091266;28;20048;-82
2022/10/15 03:26:01;;;;;;;0.75;0.30;;;16.30;99.90;;;;;;5085635;28;20048;-82
2022/10/15 03:28:28;;;;;;;0.70;0.40;;;16.40;99.90;;;;;;5078649;28;20060;-81
2022/10/15 03:30:54;;;;;;;0.75;0.35;;;16.40;99.90;;;;;;5088191;28;20135;-82
2022/10/15 03:33:21;;;;;;;0.38;0.30;;;16.40;99.90;;;;;;5088708;28;20053;-81
2022/10/15 03:35:51;;;;;;;1.45;0.40;;;16.40;99.90;;;;;;5081022;28;20080;-80
2022/10/15 03:38:18;;;;;;;0.73;0.40;;;16.40;99.90;;;;;;5079570;28;20107;-80
2022/10/15 03:40:45;;;;;;;1.77;0.55;;;16.40;99.90;;;;;;5092169;28;20045;-82
2022/10/15 03:43:12;;;;;;;2.92;0.40;;;16.40;99.90;;;;;;5067835;28;20131;-81
2022/10/15 03:45:39;;;;;;;1.85;0.20;;;16.30;99.90;;;;;;5076517;28;20051;-82
2022/10/15 03:48:06;;;;;;;3.58;0.50;;;16.50;99.90;;;;;;5085884;28;20055;-82
2022/10/15 03:50:33;;;;;;;2.53;0.40;;;16.30;99.90;;;;;;5088161;28;20458;-81
2022/10/15 03:53:03;;;;;;;0.40;0.30;;;16.40;99.90;;;;;;5082975;28;20574;-82
2022/10/15 03:55:30;;;;;;;0.38;0.30;;;16.40;99.90;;;;;;5076627;28;20117;-81
2022/10/15 03:57:56;;;;;;;1.00;0.20;;;16.30;99.90;;;;;;5071950;28;20045;-82
2022/10/15 04:00:23;;;;;;;0.30;0.30;;;16.30;99.90;;;;;;5068291;28;20050;-81
2022/10/15 04:02:50;;;;;;;0.55;0.30;;;16.30;99.90;;;;;;5081750;28;20044;-82
2022/10/15 04:05:16;;;;;;;0.35;0.30;;;16.30;99.90;;;;;;5079981;28;20059;-83
2022/10/15 04:07:43;;;;;;;2.22;0.32;;;16.30;99.90;;;;;;5089469;28;20058;-82
2022/10/15 04:10:10;;;;;;;1.88;0.20;;;16.30;99.90;;;;;;5084912;28;20083;-83
2022/10/15 04:12:37;;;;;;;1.00;0.30;;;16.30;99.90;;;;;;5078855;28;20049;-82
2022/10/15 04:15:04;;;;;;;2.35;0.30;;;16.30;99.90;;;;;;5082074;28;20043;-82
2022/10/15 04:17:30;;;;;;;1.02;0.30;;;16.30;99.90;;;;;;5087641;28;20056;-81
2022/10/15 04:19:57;;;;;;;0.38;0.30;;;16.30;99.90;;;;;;5062915;28;20429;-81
2022/10/15 04:22:24;;;;;;;2.17;0.38;;;16.30;99.90;;;;;;5078126;28;20056;-82
2022/10/15 04:24:51;;;;;;;0.30;0.20;;;16.20;99.90;;;;;;5090852;28;20051;-81
2022/10/15 04:27:17;;;;;;;1.65;0.35;;;16.30;99.90;;;;;;5085862;28;20050;-83
2022/10/15 04:29:47;;;;;;;0.63;0.30;;;16.20;99.90;;;;;;5074425;28;20052;-81
2022/10/15 04:32:14;;;;;;;0.57;0.30;;;16.30;99.90;;;;;;5084048;28;20048;-81
2022/10/15 04:34:41;;;;;;;1.90;0.63;;;16.30;99.90;;;;;;5071622;28;20052;-80
2022/10/15 04:37:07;;;;;;;0.95;0.30;;;16.30;99.90;;;;;;5081446;28;20478;-81
2022/10/15 04:39:34;;;;;;;0.38;0.30;;;16.20;99.90;;;;;;5077343;28;20058;-83
2022/10/15 04:42:01;;;;;;;1.15;0.20;;;16.20;99.90;;;;;;5090862;28;20502;-82
2022/10/15 04:44:28;;;;;;;1.02;0.55;;;16.20;99.90;;;;;;5086232;28;20479;-81
2022/10/15 04:46:54;;;;;;;1.85;0.30;;;16.20;99.90;;;;;;5062804;28;20052;-83
2022/10/15 04:49:21;;;;;;;1.85;0.40;;;16.20;99.90;;;;;;5081612;28;20052;-83
2022/10/15 04:51:48;;;;;;;0.40;0.35;;;16.20;99.90;;;;;;5090443;28;20048;-81
2022/10/15 04:54:15;;;;;;;0.73;0.32;;;16.20;99.90;;;;;;5082577;28;20043;-81
2022/10/15 04:56:41;;;;;;;1.77;0.20;;;16.20;99.90;;;;;;5078398;28;20044;-81
2022/10/15 04:59:08;;;;;;;3.90;0.32;;;16.20;99.90;;;;;;5089906;28;20410;-83
2022/10/15 05:01:35;;;;;;;2.70;0.40;;;16.20;99.90;;;;;;5088273;28;20044;-83
2022/10/15 05:04:02;;;;;;;0.30;0.30;;;16.20;99.90;;;;;;5083850;28;20083;-83
2022/10/15 05:06:31;;;;;;;1.75;0.60;;;16.20;99.90;;;;;;5082123;28;20151;-83
2022/10/15 05:08:57;;;;;;;0.75;0.22;;;16.20;99.90;;;;;;5048275;28;20049;-81
2022/10/15 05:11:26;;;;;;;1.65;1.02;;;16.20;99.90;;;;;;5095859;28;20054;-84
2022/10/15 05:13:54;;;;;;;2.05;0.45;;;16.20;99.90;;;;;;5087637;28;20049;-83
2022/10/15 05:16:24;;;;;;;3.78;0.45;;;16.30;99.90;;;;;;5087874;28;20047;-81
2022/10/15 05:18:54;;;;;;;1.15;0.38;;;16.10;99.90;;;;;;5077235;28;20048;-82
2022/10/15 05:21:21;;;;;;;2.67;0.40;;;16.20;99.90;;;;;;5089609;28;20112;-83
2022/10/15 05:23:49;;;;;;;2.60;0.50;;;16.20;99.90;;;;;;5083008;28;20048;-83
2022/10/15 05:26:18;;;;;;;1.95;0.40;;;16.20;99.90;;;;;;5096395;28;20460;-82
2022/10/15 05:28:45;;;;;;;2.08;0.40;;;16.30;99.90;;;;;;5104823;28;20043;-82
2022/10/15 05:31:14;;;;;;;0.95;0.43;;;16.20;99.90;;;;;;5103009;28;20068;-82
2022/10/15 05:33:49;;;;;;;1.98;0.32;;;16.20;99.90;;;;;;5082928;28;20055;-81
2022/10/15 05:36:29;;;;;;;0.50;0.22;;;16.20;99.90;;;;;;5083438;28;20048;-83
2022/10/15 05:38:58;;;;;;;2.25;0.45;;;16.20;99.90;;;;;;5094402;28;20477;-83
2022/10/15 05:41:26;;;;;;;1.70;0.50;;;16.20;99.90;;;;;;5085482;28;20079;-81
2022/10/15 05:43:54;;;;;;;3.13;0.30;;;16.20;99.90;;;;;;5099051;28;20116;-83
2022/10/15 05:46:21;;;;;;;1.58;0.70;;;16.30;99.90;;;;;;5090726;28;20131;-83
2022/10/15 05:48:49;;;;;;;2.67;0.70;;;16.30;99.90;;;;;;5067270;28;20144;-83
2022/10/15 05:51:16;;;;;;;3.20;0.90;;;16.20;99.90;;;;;;5086973;28;20048;-83
2022/10/15 05:53:45;;;;;;;3.55;0.50;;;16.20;99.90;;;;;;5087408;28;20052;-83
2022/10/15 05:56:13;;;;;;;10.15;1.20;;;16.20;99.90;;;;;;5084163;28;20045;-83
2022/10/15 05:58:40;;;;;;;4.82;0.70;;;16.20;99.90;;;;;;5081707;28;20044;-83
2022/10/15 06:01:09;;;;;;;3.65;1.02;;;16.20;99.90;;;;;;5093294;28;20054;-83
2022/10/15 06:03:36;;;;;;;4.55;0.95;;;16.20;99.90;;;;;;5090607;28;20428;-83
2022/10/15 06:06:03;;;;;;;3.03;0.70;;;16.30;99.90;;;;;;5084596;28;20051;-82
2022/10/15 06:08:30;;;;;;;3.03;0.70;;;16.30;99.90;;;;;;5066342;28;20047;-83
2022/10/15 06:11:03;;;;;;;2.95;0.80;;;16.20;99.90;;;;;;5075855;28;20044;-83
2022/10/15 06:13:37;;;;;;;3.25;1.00;;;16.30;99.90;;;;;;5087026;28;20060;-83
2022/10/15 06:16:04;;;;;;;1.23;0.70;;;16.40;99.90;;;;;;5081370;28;20048;-83
2022/10/15 06:18:31;;;;;;;2.45;0.70;;;16.30;99.90;;;;;;5091903;28;20051;-82
2022/10/15 06:20:58;;;;;;;0.98;0.60;;;16.30;99.90;;;;;;5067319;28;20048;-83
2022/10/15 06:23:25;;;;;;;4.72;0.77;;;16.30;99.90;;;;;;5081690;28;20518;-83
2022/10/15 06:25:52;;;;;;;1.95;0.30;;;16.40;99.90;;;;;;5083613;28;20056;-82
2022/10/15 06:28:18;;;;;;;3.88;0.50;;;16.40;99.90;;;;;;5093741;28;20048;-83
2022/10/15 06:30:45;;;;;;;2.95;0.52;;;16.40;99.90;;;;;;5088670;28;20077;-83
2022/10/15 06:33:14;;;;;;;1.63;0.30;;;16.40;99.90;;;;;;5082761;28;20052;-82
2022/10/15 06:35:41;;;;;;;2.33;0.30;;;16.40;99.90;;;;;;5083525;28;20048;-83
2022/10/15 06:38:08;;;;;;;2.22;0.90;;;16.40;99.90;;;;;;5090940;28;20055;-83
2022/10/15 06:40:36;;;;;;;2.67;0.50;;;16.50;99.90;;;;;;5086432;28;20047;-84
2022/10/15 06:43:06;;;;;;;0.80;0.30;;;16.50;99.90;;;;;;5079987;28;20379;-84
2022/10/15 06:45:35;;;;;;;2.60;0.45;;;16.50;99.90;;;;;;5094231;28;20044;-84
2022/10/15 06:48:03;;;;;;;3.38;0.63;;;16.60;99.90;;;;;;5088379;28;20052;-83
2022/10/15 06:50:31;;;;;;;1.27;0.50;;;16.60;99.90;;;;;;5083938;28;20056;-83
2022/10/15 06:52:58;;;;;;;0.63;0.50;;;16.60;99.90;;;;;;5085163;28;20478;-83
2022/10/15 06:55:29;;;;;;;2.45;0.45;;;16.70;99.90;;;;;;5091696;28;20056;-83
2022/10/15 06:57:56;;;;;;;1.77;0.60;;;16.80;99.90;;;;;;5082024;28;20040;-83
2022/10/15 07:00:24;;;;;;;3.65;0.38;;;16.90;99.90;;;;;;5080111;28;20049;-83
2022/10/15 07:02:50;;;;;;;1.92;0.30;;;16.90;99.90;;;;;;5087849;28;20044;-83
2022/10/15 07:05:18;;;;;;;3.42;0.40;;;17.10;99.90;;;;;;5071782;28;20415;-83
2022/10/15 07:07:55;;;;;;;1.23;0.50;;;17.10;99.90;;;;;;5067251;28;20051;-83
2022/10/15 07:10:23;;;;;;;1.27;0.45;;;17.20;99.90;;;;;;5082663;28;20448;-84
2022/10/15 07:12:50;;;;;;;3.63;0.77;;;17.20;99.90;;;;;;5093222;28;20127;-82
2022/10/15 07:15:18;;;;;;;0.52;0.32;;;17.30;99.90;;;;;;5085904;28;20040;-83
2022/10/15 07:17:49;;;;;;;2.83;0.57;;;17.30;99.90;;;;;;5080655;28;20055;-80
2022/10/15 07:20:16;;;;;;;0.88;0.60;;;17.40;99.90;;;;;;5091438;28;20044;-83
2022/10/15 07:22:49;;;;;;;3.40;0.60;;;17.40;99.90;;;;;;5081502;28;20044;-82
2022/10/15 07:25:16;;;;;;;0.30;0.30;;;17.50;99.90;;;;;;5084867;28;20110;-83
2022/10/15 07:27:43;;;;;;;2.35;0.73;;;17.50;99.90;;;;;;5080206;28;20504;-83
2022/10/15 07:30:10;;;;;;;1.48;0.40;;;17.60;99.90;;;;;;5093622;28;20083;-83
2022/10/15 07:32:37;;;;;;;0.82;0.60;;;17.60;99.90;;;;;;5088269;28;20056;-83
2022/10/15 07:35:04;;;;;;;4.15;0.60;;;17.70;99.90;;;;;;5082480;28;20059;-84
2022/10/15 07:37:31;;;;;;;2.17;0.82;;;17.70;99.90;;;;;;5072704;28;20066;-83
2022/10/15 07:39:57;;;;;;;3.28;0.63;;;17.70;99.90;;;;;;5083317;28;20041;-83
2022/10/15 07:42:24;;;;;;;1.33;0.40;;;17.80;99.90;;;;;;5065689;28;20502;-83
2022/10/15 07:44:51;;;;;;;1.73;1.02;;;17.80;99.90;;;;;;5077578;28;20064;-83
2022/10/15 07:47:18;;;;;;;5.70;0.60;;;17.80;99.90;;;;;;5092155;28;20059;-83
2022/10/15 07:49:45;;;;;;;1.50;0.20;;;17.80;99.90;;;;;;5085739;28;20136;-84
2022/10/15 07:52:11;;;;;;;1.70;0.40;;;17.90;99.90;;;;;;5082781;28;20059;-83
2022/10/15 07:54:38;;;;;;;3.25;0.57;;;18.00;99.90;;;;;;5084017;28;20054;-82
2022/10/15 07:57:08;;;;;;;1.17;0.93;;;18.00;99.90;;;;;;5092701;28;20045;-83
2022/10/15 07:59:35;;;;;;;4.30;0.60;;;18.00;99.90;;;;;;5085674;28;20052;-84
2022/10/15 08:02:02;;;;;;;1.92;0.98;;;18.00;99.90;;;;;;5063776;28;20054;-84
2022/10/15 08:04:29;;;;;;;4.03;0.52;;;18.10;99.90;;;;;;5090997;28;20047;-81
2022/10/15 08:06:55;;;;;;;1.40;0.43;;;18.10;99.90;;;;;;5089964;28;20044;-84
2022/10/15 08:09:22;;;;;;;2.72;0.40;;;18.10;99.90;;;;;;5084419;28;20066;-83
2022/10/15 08:11:49;;;;;;;1.15;0.40;;;18.10;99.90;;;;;;5083276;28;20048;-81
2022/10/15 08:14:16;;;;;;;1.85;0.60;;;18.20;99.90;;;;;;5092453;28;20047;-83
2022/10/15 08:16:43;;;;;;;1.15;0.35;;;18.10;99.90;;;;;;5084979;28;20054;-83
2022/10/15 08:19:09;;;;;;;1.80;0.57;;;18.10;99.90;;;;;;5082295;28;20048;-82
2022/10/15 08:21:36;;;;;;;1.75;0.50;;;18.10;99.90;;;;;;5084851;28;20046;-83
2022/10/15 08:24:03;;;;;;;5.05;0.80;;;18.00;99.90;;;;;;5083789;28;20058;-84
2022/10/15 08:26:30;;;;;;;1.00;0.40;;;18.00;99.90;;;;;;5077311;28;20052;-83
2022/10/15 08:28:57;;;;;;;2.50;0.35;;;18.00;99.90;;;;;;5058744;28;20171;-83
2022/10/15 08:31:24;;;;;;;3.13;0.60;;;18.00;99.90;;;;;;5094072;28;20131;-83
2022/10/15 08:33:50;;;;;;;2.15;0.90;;;18.00;99.90;;;;;;5071595;28;20554;-83
2022/10/15 08:36:17;;;;;;;2.97;0.60;;;17.90;99.90;;;;;;5084309;28;20512;-81
2022/10/15 08:38:44;;;;;;;2.63;0.55;;;17.90;99.90;;;;;;5084742;28;20048;-82
2022/10/15 08:41:36;;;;;;;1.75;0.60;;;17.90;99.90;;;;;;5080739;28;20051;-83
2022/10/15 08:44:05;;;;;;;1.33;0.30;;;17.90;99.90;;;;;;5087415;28;20044;-84
2022/10/15 08:46:36;;;;;;;3.13;0.47;;;17.90;99.90;;;;;;5085507;28;20500;-83
2022/10/15 08:49:04;;;;;;;2.55;0.57;;;17.90;99.90;;;;;;5091510;28;20072;-83
2022/10/15 08:51:41;;;;;;;0.90;0.40;;;17.90;99.90;;;;;;5092907;28;20055;-84
2022/10/15 08:54:15;;;;;;;3.70;0.40;;;17.90;99.90;;;;;;5090826;28;20044;-83
2022/10/15 08:56:53;;;;;;;0.60;0.32;;;18.00;99.90;;;;;;5093886;28;20067;-82
2022/10/15 08:59:34;;;;;;;1.08;0.30;;;18.10;99.90;;;;;;5098143;28;20055;-83
2022/10/15 09:02:16;;;;;;;1.95;0.45;;;18.10;99.90;;;;;;5091037;28;20048;-83
2022/10/15 09:05:20;;;;;;;3.90;0.60;;;18.20;99.90;;;;;;5084088;28;20059;-84
2022/10/15 09:08:02;;;;;;;1.75;0.40;;;18.20;99.90;;;;;;5100368;28;20500;-83
2022/10/15 09:10:42;;;;;;;2.33;0.40;;;18.20;99.90;;;;;;5089223;28;20056;-84
2022/10/15 09:13:41;;;;;;;2.55;0.40;;;18.20;99.90;;;;;;5085338;28;20056;-82
2022/10/15 09:16:21;;;;;;;2.63;0.40;;;18.20;99.90;;;;;;5093384;28;20059;-84
2022/10/15 09:18:51;;;;;;;2.58;0.60;;;18.20;99.90;;;;;;5092920;28;20473;-83
2022/10/15 09:21:21;;;;;;;2.70;0.90;;;18.20;99.90;;;;;;5091815;28;20045;-82
2022/10/15 09:23:47;;;;;;;4.00;0.68;;;18.20;99.90;;;;;;5102757;28;20057;-83
2022/10/15 09:26:42;;;;;;;1.48;0.40;;;18.20;99.90;;;;;;5089041;28;20053;-82
2022/10/15 09:29:35;;;;;;;0.68;0.52;;;18.20;99.90;;;;;;5092459;28;20130;-83
2022/10/15 09:32:32;;;;;;;2.92;0.60;;;18.20;99.90;;;;;;5096960;28;20048;-83
2022/10/15 09:35:22;;;;;;;5.82;1.10;;;18.20;99.90;;;;;;5062117;28;20112;-81
2022/10/15 09:38:12;;;;;;;4.18;0.50;;;18.20;99.90;;;;;;5055160;28;20053;-82
2022/10/15 09:41:14;;;;;;;2.97;0.70;;;18.30;99.90;;;;;;5091848;28;20058;-83
2022/10/15 09:43:46;;;;;;;1.15;0.60;;;18.30;99.90;;;;;;5093583;28;20051;-82
2022/10/15 09:46:13;;;;;;;3.50;0.50;;;18.40;99.90;;;;;;5086608;28;20568;-82
2022/10/15 09:49:11;;;;;;;1.85;0.40;;;18.50;99.90;;;;;;5069019;28;20054;-83
2022/10/15 09:52:21;;;;;;;3.80;0.75;;;18.60;99.90;;;;;;5084417;28;20044;-83
2022/10/15 09:54:53;;;;;;;;;;;18.70;99.90;;;;;;5003465;28;20062;-82
2022/10/15 09:57:22;;;;;;;1.10;0.43;;;18.80;99.90;;;;;;5002199;28;19925;-83
2022/10/15 09:59:54;;;;;;;0.70;0.50;;;18.80;99.90;;;;;;5057388;28;20134;-83
2022/10/15 10:02:23;;;;;;;1.25;0.57;;;18.80;99.90;;;;;;5085453;28;20040;-83
2022/10/15 10:04:51;;;;;;;2.05;0.70;;;18.90;99.90;;;;;;5084636;28;20056;-84
2022/10/15 10:07:35;;;;;;;1.13;0.50;;;18.90;99.90;;;;;;5089839;28;20048;-83
2022/10/15 10:10:19;;;;;;;1.95;0.40;;;19.00;99.90;;;;;;5060333;28;20044;-84
2022/10/15 10:12:46;;;;;;;1.88;0.43;;;19.10;99.90;;;;;;5083595;28;20048;-83
2022/10/15 10:15:40;;;;;;;2.72;0.50;;;19.10;99.90;;;;;;5082847;28;20421;-83
2022/10/15 10:18:19;;;;;;;2.58;0.45;;;19.20;99.90;;;;;;5077161;28;20048;-83
2022/10/15 10:20:58;;;;;;;1.88;0.40;;;19.20;99.90;;;;;;5083594;28;20055;-82
2022/10/15 10:23:36;;;;;;;4.40;0.45;;;19.20;99.90;;;;;;5079068;28;20135;-81
2022/10/15 10:26:05;;;;;;;2.95;0.55;;;19.30;99.90;;;;;;5080634;28;20135;-83
2022/10/15 10:28:45;;;;;;;1.75;0.60;;;19.30;99.90;;;;;;5089306;28;20052;-82
2022/10/15 10:31:12;;;;;;;3.20;0.73;;;19.30;99.90;;;;;;5083200;28;20409;-84
2022/10/15 10:33:38;;;;;;;1.58;0.60;;;19.30;99.90;;;;;;5088007;28;20316;-83
2022/10/15 10:36:07;;;;;;;3.50;0.80;;;19.30;99.90;;;;;;5093716;28;20056;-83
2022/10/15 10:38:39;;;;;;;2.10;0.50;;;19.20;99.90;;;;;;5086127;28;20576;-84
2022/10/15 10:41:10;;;;;;;2.63;0.70;;;19.30;99.90;;;;;;5081059;28;20052;-83
2022/10/15 10:43:52;;;;;;;2.63;0.52;;;19.30;99.90;;;;;;5094287;28;20417;-83
2022/10/15 10:46:23;;;;;;;2.70;0.55;;;19.30;99.90;;;;;;5087434;28;20044;-84
2022/10/15 10:48:53;;;;;;;1.48;0.80;;;19.40;99.90;;;;;;5082653;28;20052;-83
2022/10/15 10:51:26;;;;;;;3.70;1.20;;;19.40;99.90;;;;;;5088856;28;20509;-83
2022/10/15 10:54:00;;;;;;;2.90;0.77;;;19.50;99.90;;;;;;5085672;28;20052;-84
2022/10/15 10:56:36;;;;;;;4.25;0.70;;;19.60;99.90;;;;;;5079381;28;20525;-84
2022/10/15 10:59:19;;;;;;;2.30;0.50;;;19.60;99.90;;;;;;5046877;28;20435;-83
2022/10/15 11:01:46;;;;;;;11.88;1.23;;;19.70;99.90;;;;;;5093919;28;20044;-83
2022/10/15 11:04:18;;;;;;;1.20;0.65;;;19.70;99.90;;;;;;5087215;28;20049;-84
2022/10/15 11:06:55;;;;;;;1.17;0.60;;;19.80;99.90;;;;;;5079829;28;20058;-84
2022/10/15 11:09:52;;;;;;;2.88;0.40;;;19.80;99.90;;;;;;5091799;28;20044;-83
2022/10/15 11:12:50;;;;;;;1.85;0.65;;;19.70;99.90;;;;;;5089475;28;20048;-84
2022/10/15 11:15:35;;;;;;;4.72;0.70;;;19.70;99.90;;;;;;5082832;28;20055;-82
2022/10/15 11:18:26;;;;;;;2.88;0.52;;;19.70;99.90;;;;;;5090435;28;20501;-82
2022/10/15 11:21:04;;;;;;;1.65;0.57;;;19.70;99.90;;;;;;5085062;28;20083;-83
2022/10/15 11:23:35;;;;;;;5.20;0.50;;;19.80;99.90;;;;;;5084393;28;20052;-84
2022/10/15 11:26:16;;;;;;;3.10;0.52;;;19.80;99.90;;;;;;5082172;28;20130;-85
2022/10/15 11:29:05;;;;;;;6.13;0.75;;;19.80;99.90;;;;;;5093415;28;20052;-83
2022/10/15 11:31:49;;;;;;;0.90;0.57;;;19.80;99.90;;;;;;5090161;28;20052;-83
2022/10/15 11:35:08;;;;;;;1.20;0.40;;;19.90;99.90;;;;;;5082579;28;20056;-84
2022/10/15 11:38:12;;;;;;;4.07;0.47;;;19.90;99.90;;;;;;5019424;28;20047;-83
2022/10/15 11:41:24;;;;;;;1.75;0.60;;;19.90;99.90;;;;;;5064923;28;20131;-84
2022/10/15 11:44:03;;;;;;;1.70;0.75;;;19.80;99.90;;;;;;5065503;28;20058;-84
2022/10/15 11:46:46;;;;;;;3.63;0.45;;;19.80;99.90;;;;;;5090689;28;20055;-85
2022/10/15 11:49:42;;;;;;;1.73;0.35;;;19.80;99.90;;;;;;5083509;28;20214;-83
2022/10/15 11:52:20;;;;;;;2.13;0.40;;;19.90;99.90;;;;;;5063590;28;20569;-84
2022/10/15 11:55:00;;;;;;;5.47;0.50;;;19.90;99.90;;;;;;5074277;28;20552;-83
2022/10/15 11:57:30;;;;;;;3.33;0.60;;;19.80;99.90;;;;;;5084150;28;20086;-83
2022/10/15 12:00:18;;;;;;;3.03;1.00;;;19.80;99.90;;;;;;5081702;28;20050;-84
2022/10/15 12:02:46;;;;;;;5.55;0.95;;;19.80;99.90;;;;;;5091994;28;20051;-83
2022/10/15 12:05:47;;;;;;;6.18;1.05;;;19.90;99.90;;;;;;5087911;28;20104;-83
2022/10/15 12:08:15;;;;;;;3.63;0.60;;;19.80;99.90;;;;;;5081148;28;20436;-82
2022/10/15 12:10:45;;;;;;;3.45;0.50;;;19.90;99.90;;;;;;5087205;28;20054;-83
2022/10/15 12:13:44;;;;;;;2.90;0.60;;;19.90;99.90;;;;;;5083582;28;20047;-83
2022/10/15 12:16:31;;;;;;;3.60;0.80;;;19.90;99.90;;;;;;5082438;28;20497;-83
2022/10/15 12:19:11;;;;;;;3.42;1.02;;;19.90;99.90;;;;;;5037129;28;20429;-82
2022/10/15 12:21:53;;;;;;;1.85;0.60;;;20.00;99.90;;;;;;5089177;28;20506;-83
2022/10/15 12:24:39;;;;;;;1.65;0.50;;;19.90;99.90;;;;;;5083828;28;20087;-83
2022/10/15 12:27:25;;;;;;;0.38;0.38;;;19.90;99.90;;;;;;5079886;28;20044;-82
2022/10/15 12:30:12;;;;;;;0.95;0.60;;;19.90;99.90;;;;;;5091943;28;20105;-84
2022/10/15 12:32:47;;;;;;;2.20;0.70;;;19.90;99.90;;;;;;5086498;28;20048;-84
2022/10/15 12:35:14;;;;;;;2.70;0.50;;;19.90;99.90;;;;;;5080518;28;20102;-83
2022/10/15 12:37:43;;;;;;;5.15;0.80;;;20.00;99.90;;;;;;5091252;28;20522;-84
2022/10/15 12:40:22;;;;;;;3.85;0.70;;;20.00;99.90;;;;;;5089715;28;20051;-84
2022/10/15 12:42:54;;;;;;;0.50;0.40;;;20.00;99.90;;;;;;5082490;28;20485;-84
2022/10/15 12:45:24;;;;;;;6.18;0.60;;;20.00;99.90;;;;;;5080393;28;20051;-84
2022/10/15 12:48:11;;;;;;;5.72;0.60;;;20.10;99.90;;;;;;5091091;28;20683;-82
2022/10/15 12:50:38;;;;;;;2.83;0.55;;;20.10;99.90;;;;;;5085701;28;20134;-83
2022/10/15 12:53:24;;;;;;;3.70;0.60;;;20.00;99.90;;;;;;5080161;28;20506;-82
2022/10/15 12:56:11;;;;;;;3.33;0.52;;;20.10;99.90;;;;;;5092784;28;20048;-83
2022/10/15 12:58:39;;;;;;;2.28;1.20;;;20.00;99.90;;;;;;5070180;28;20080;-83
2022/10/15 13:01:27;;;;;;;3.10;0.55;;;19.90;99.90;;;;;;5079089;28;20048;-84
2022/10/15 13:03:56;;;;;;;2.00;0.68;;;19.80;99.90;;;;;;5086985;28;20052;-83
2022/10/15 13:06:31;;;;;;;3.92;0.47;;;19.80;99.90;;;;;;5088837;28;20051;-83
2022/10/15 13:09:05;;;;;;;3.72;1.00;;;19.80;99.90;;;;;;5081444;28;20052;-84
2022/10/15 13:11:47;;;;;;;2.63;0.52;;;19.90;99.90;;;;;;5081497;28;20054;-83
2022/10/15 13:14:23;;;;;;;2.97;0.60;;;19.90;99.90;;;;;;5091691;28;20056;-84
2022/10/15 13:16:50;;;;;;;1.95;0.30;;;19.80;99.90;;;;;;5084574;28;20048;-83